createdAt,value
2018-08-04T00:01:12.769Z,26.20
2018-08-04T00:03:42.041Z,26.10
2018-08-04T00:06:10.508Z,26.00
2018-08-04T00:08:38.970Z,26.00
2018-08-04T00:11:07.409Z,26.00
2018-08-04T00:13:35.883Z,25.90
2018-08-04T00:16:04.357Z,25.90
2018-08-04T00:18:32.837Z,25.80
2018-08-04T00:21:01.329Z,25.80
2018-08-04T00:23:29.848Z,25.90
2018-08-04T00:25:58.369Z,25.90
2018-08-04T00:28:26.829Z,25.80
2018-08-04T00:30:55.281Z,25.80
2018-08-04T00:33:23.749Z,25.60
2018-08-04T00:35:52.235Z,25.60
2018-08-04T00:38:20.675Z,25.60
2018-08-04T00:40:49.157Z,25.50
2018-08-04T00:43:17.589Z,25.40
2018-08-04T00:45:46.091Z,25.40
2018-08-04T00:48:14.520Z,25.40
2018-08-04T00:50:42.935Z,25.30
2018-08-04T00:53:12.024Z,25.20
2018-08-04T00:55:40.462Z,25.20
2018-08-04T00:58:08.953Z,25.20
2018-08-04T01:00:37.403Z,25.20
2018-08-04T01:03:05.864Z,25.20
2018-08-04T01:05:34.312Z,25.10
2018-08-04T01:08:02.838Z,25.10
2018-08-04T01:10:31.264Z,25.10
2018-08-04T01:12:59.762Z,25.00
2018-08-04T01:15:28.213Z,25.00
2018-08-04T01:17:56.621Z,25.00
2018-08-04T01:20:25.068Z,25.00
2018-08-04T01:22:54.095Z,24.90
2018-08-04T01:25:23.286Z,24.90
2018-08-04T01:27:51.685Z,24.90
2018-08-04T01:30:20.241Z,24.90
2018-08-04T01:32:48.669Z,24.80
2018-08-04T01:35:17.097Z,24.80
2018-08-04T01:37:46.305Z,24.80
2018-08-04T01:40:14.710Z,24.70
2018-08-04T01:42:43.364Z,24.60
2018-08-04T01:45:11.859Z,24.50
2018-08-04T01:47:40.336Z,24.40
2018-08-04T01:50:13.105Z,24.40
2018-08-04T01:52:41.524Z,24.40
2018-08-04T01:55:09.945Z,24.30
2018-08-04T01:57:38.388Z,24.30
2018-08-04T02:00:07.119Z,24.30
2018-08-04T02:02:35.658Z,24.30
2018-08-04T02:05:04.111Z,24.40
2018-08-04T02:07:32.585Z,24.40
2018-08-04T02:10:01.581Z,24.40
2018-08-04T02:12:29.980Z,24.40
2018-08-04T02:14:58.428Z,24.30
2018-08-04T02:17:27.117Z,24.10
2018-08-04T02:19:55.568Z,24.10
2018-08-04T02:22:23.983Z,24.10
2018-08-04T02:24:52.464Z,24.00
2018-08-04T02:27:20.932Z,24.00
2018-08-04T02:29:49.369Z,23.90
2018-08-04T02:32:17.771Z,23.90
2018-08-04T02:34:46.965Z,23.80
2018-08-04T02:37:15.407Z,23.80
2018-08-04T02:39:43.896Z,23.70
2018-08-04T02:42:12.424Z,23.70
2018-08-04T02:44:41.091Z,23.70
2018-08-04T02:47:09.522Z,23.70
2018-08-04T02:49:38.017Z,23.70
2018-08-04T02:52:06.474Z,23.50
2018-08-04T02:54:34.904Z,23.40
2018-08-04T02:57:03.520Z,23.30
2018-08-04T02:59:31.948Z,23.30
2018-08-04T03:02:00.510Z,23.30
2018-08-04T03:04:28.932Z,23.30
2018-08-04T03:06:57.401Z,23.30
2018-08-04T03:11:54.293Z,23.20
2018-08-04T03:14:23.172Z,23.20
2018-08-04T03:16:51.689Z,23.10
2018-08-04T03:19:20.092Z,23.10
2018-08-04T03:21:48.573Z,23.10
2018-08-04T03:24:17.092Z,23.00
2018-08-04T03:26:45.556Z,23.10
2018-08-04T03:31:42.777Z,23.00
2018-08-04T03:34:11.194Z,22.90
2018-08-04T03:36:40.430Z,22.90
2018-08-04T03:39:14.594Z,22.80
2018-08-04T03:41:43.033Z,22.80
2018-08-04T03:44:11.476Z,22.60
2018-08-04T03:46:40.193Z,22.70
2018-08-04T03:49:13.068Z,22.80
2018-08-04T03:51:42.328Z,22.80
2018-08-04T03:54:10.948Z,22.80
2018-08-04T03:56:39.384Z,22.70
2018-08-04T03:59:07.821Z,22.70
2018-08-04T04:01:36.340Z,22.60
2018-08-04T04:04:04.788Z,22.70
2018-08-04T04:06:33.320Z,22.50
2018-08-04T04:09:01.720Z,22.60
2018-08-04T04:11:30.146Z,22.60
2018-08-04T04:13:58.657Z,22.70
2018-08-04T04:16:27.089Z,22.60
2018-08-04T04:18:55.512Z,22.60
2018-08-04T04:21:24.145Z,22.60
2018-08-04T04:23:57.409Z,22.60
2018-08-04T04:26:26.208Z,22.50
2018-08-04T04:28:54.665Z,22.50
2018-08-04T04:31:23.120Z,22.50
2018-08-04T04:33:51.753Z,22.50
2018-08-04T04:36:20.197Z,22.60
2018-08-04T04:38:49.431Z,22.60
2018-08-04T04:41:18.042Z,22.50
2018-08-04T04:43:46.459Z,22.50
2018-08-04T04:46:15.483Z,22.40
2018-08-04T04:48:44.338Z,22.40
2018-08-04T04:51:12.825Z,22.20
2018-08-04T04:53:41.372Z,22.40
2018-08-04T04:56:09.884Z,22.40
2018-08-04T04:58:39.433Z,22.40
2018-08-04T05:01:08.741Z,22.40
2018-08-04T05:03:37.154Z,22.50
2018-08-04T05:06:06.667Z,22.60
2018-08-04T05:08:35.150Z,22.60
2018-08-04T05:11:04.833Z,22.70
2018-08-04T05:16:06.328Z,22.70
2018-08-04T05:18:35.405Z,22.80
2018-08-04T05:21:03.942Z,22.80
2018-08-04T05:23:32.903Z,23.00
2018-08-04T05:26:01.917Z,23.10
2018-08-04T05:28:30.666Z,23.30
2018-08-04T05:30:59.064Z,23.30
2018-08-04T05:33:27.602Z,23.50
2018-08-04T05:35:56.052Z,23.70
2018-08-04T05:38:25.056Z,23.70
2018-08-04T05:40:57.499Z,23.80
2018-08-04T05:43:26.853Z,23.90
2018-08-04T05:45:55.212Z,23.90
2018-08-04T05:48:24.134Z,23.90
2018-08-04T05:50:53.202Z,24.00
2018-08-04T05:53:21.625Z,24.10
2018-08-04T05:55:50.596Z,24.20
2018-08-04T05:58:19.708Z,24.20
2018-08-04T06:00:48.303Z,24.20
2018-08-04T06:03:16.746Z,24.10
2018-08-04T06:05:45.210Z,24.20
2018-08-04T06:08:13.677Z,24.30
2018-08-04T06:10:42.626Z,24.30
2018-08-04T06:13:11.068Z,24.20
2018-08-04T06:15:39.487Z,24.20
2018-08-04T06:18:08.096Z,24.10
2018-08-04T06:20:36.579Z,24.00
2018-08-04T06:23:06.102Z,23.80
2018-08-04T06:25:34.629Z,23.70
2018-08-04T06:28:04.145Z,23.80
2018-08-04T06:30:32.908Z,23.80
2018-08-04T06:33:01.294Z,23.80
2018-08-04T06:35:29.764Z,23.80
2018-08-04T06:37:58.864Z,23.70
2018-08-04T06:40:27.352Z,23.60
2018-08-04T06:42:56.211Z,23.60
2018-08-04T06:45:26.072Z,23.60
2018-08-04T06:50:27.025Z,23.70
2018-08-04T06:52:55.509Z,23.90
2018-08-04T06:55:23.933Z,24.00
2018-08-04T06:57:53.204Z,24.00
2018-08-04T07:00:22.170Z,24.00
2018-08-04T07:02:50.918Z,24.10
2018-08-04T07:05:20.472Z,24.00
2018-08-04T07:07:49.403Z,23.90
2018-08-04T07:10:18.453Z,24.10
2018-08-04T07:12:47.160Z,24.10
2018-08-04T07:15:15.588Z,24.10
2018-08-04T07:17:45.529Z,24.40
2018-08-04T07:20:14.048Z,24.40
2018-08-04T07:22:42.485Z,24.60
2018-08-04T07:25:11.470Z,24.60
2018-08-04T07:27:39.916Z,24.60
2018-08-04T07:30:14.502Z,24.60
2018-08-04T07:32:44.524Z,24.70
2018-08-04T07:35:14.139Z,24.80
2018-08-04T07:37:43.432Z,25.00
2018-08-04T07:40:21.711Z,25.20
2018-08-04T07:42:50.369Z,25.40
2018-08-04T07:45:18.867Z,25.60
2018-08-04T07:47:47.774Z,25.70
2018-08-04T07:50:20.425Z,25.70
2018-08-04T07:52:49.017Z,25.90
2018-08-04T07:55:17.480Z,25.90
2018-08-04T07:57:45.944Z,26.10
2018-08-04T08:00:14.390Z,26.00
2018-08-04T08:02:42.804Z,26.20
2018-08-04T08:05:11.263Z,26.40
2018-08-04T08:07:39.769Z,26.70
2018-08-04T08:10:08.270Z,27.10
2018-08-04T08:12:36.673Z,27.40
2018-08-04T08:15:07.031Z,27.60
2018-08-04T08:17:35.696Z,27.90
2018-08-04T08:20:04.725Z,27.90
2018-08-04T08:22:44.831Z,28.00
2018-08-04T08:25:17.746Z,28.00
2018-08-04T08:27:46.347Z,28.10
2018-08-04T08:30:15.775Z,28.00
2018-08-04T08:32:44.253Z,27.90
2018-08-04T08:35:13.129Z,28.10
2018-08-04T08:37:42.026Z,28.10
2018-08-04T08:40:10.734Z,28.40
2018-08-04T08:42:39.272Z,28.60
2018-08-04T08:45:09.205Z,28.90
2018-08-04T08:47:37.647Z,29.10
2018-08-04T08:50:08.314Z,29.00
2018-08-04T08:52:36.872Z,29.30
2018-08-04T08:55:05.497Z,29.40
2018-08-04T08:57:34.046Z,29.70
2018-08-04T09:00:02.785Z,30.30
2018-08-04T09:02:31.245Z,30.60
2018-08-04T09:07:28.007Z,30.80
2018-08-04T09:09:57.118Z,31.00
2018-08-04T09:12:26.361Z,31.00
2018-08-04T09:14:55.516Z,31.20
2018-08-04T09:17:24.023Z,31.30
2018-08-04T09:19:56.523Z,31.10
2018-08-04T09:22:25.668Z,31.20
2018-08-04T09:24:54.117Z,31.40
2018-08-04T09:27:22.990Z,31.40
2018-08-04T09:29:51.445Z,31.20
2018-08-04T09:32:20.658Z,31.30
2018-08-04T09:34:49.157Z,31.50
2018-08-04T09:37:17.844Z,31.90
2018-08-04T09:39:46.713Z,32.40
2018-08-04T09:42:15.905Z,32.50
2018-08-04T09:44:45.023Z,32.70
2018-08-04T09:47:13.761Z,32.90
2018-08-04T09:49:42.201Z,32.90
2018-08-04T09:52:15.233Z,32.80
2018-08-04T09:54:43.712Z,32.90
2018-08-04T09:57:12.198Z,32.90
2018-08-04T09:59:40.759Z,33.20
2018-08-04T10:02:12.222Z,33.20
2018-08-04T10:04:41.176Z,32.90
2018-08-04T10:07:10.096Z,32.90
2018-08-04T10:09:39.531Z,33.10
2018-08-04T10:12:08.161Z,33.30
2018-08-04T10:14:36.663Z,33.70
2018-08-04T10:17:05.481Z,33.80
2018-08-04T10:19:33.981Z,33.60
2018-08-04T10:22:02.511Z,33.90
2018-08-04T10:26:59.524Z,33.40
2018-08-04T10:29:28.689Z,33.70
2018-08-04T10:31:58.130Z,34.20
2018-08-04T10:34:26.567Z,34.20
2018-08-04T10:36:55.157Z,34.30
2018-08-04T10:39:24.445Z,34.20
2018-08-04T10:44:21.401Z,33.70
2018-08-04T10:46:50.311Z,33.80
2018-08-04T10:49:19.126Z,33.90
2018-08-04T10:51:48.189Z,34.10
2018-08-04T10:54:18.070Z,34.20
2018-08-04T10:56:47.155Z,34.40
2018-08-04T10:59:15.688Z,34.60
2018-08-04T11:01:44.640Z,34.60
2018-08-04T11:04:13.416Z,34.70
2018-08-04T11:06:43.121Z,34.70
2018-08-04T11:09:13.268Z,34.50
2018-08-04T11:11:41.697Z,34.60
2018-08-04T11:14:10.476Z,34.70
2018-08-04T11:16:39.438Z,34.80
2018-08-04T11:19:07.980Z,34.90
2018-08-04T11:21:36.420Z,34.90
2018-08-04T11:24:04.927Z,34.80
2018-08-04T11:26:33.376Z,34.60
2018-08-04T11:29:02.096Z,34.40
2018-08-04T11:31:30.990Z,34.50
2018-08-04T11:33:59.584Z,34.60
2018-08-04T11:36:28.100Z,34.60
2018-08-04T11:38:56.588Z,34.80
2018-08-04T11:41:25.026Z,34.80
2018-08-04T11:43:53.537Z,35.00
2018-08-04T11:46:22.596Z,34.90
2018-08-04T12:01:51.207Z,34.90
2018-08-04T12:04:22.835Z,34.30
2018-08-04T12:06:51.841Z,34.30
2018-08-04T12:09:21.528Z,34.40
2018-08-04T12:11:51.131Z,34.30
2018-08-04T12:14:20.422Z,34.30
2018-08-04T12:16:48.870Z,34.20
2018-08-04T12:19:19.704Z,34.30
2018-08-04T12:21:49.337Z,34.40
2018-08-04T12:24:18.075Z,34.30
2018-08-04T12:26:46.692Z,34.30
2018-08-04T12:29:15.198Z,34.10
2018-08-04T12:31:43.714Z,34.20
2018-08-04T12:34:15.761Z,34.30
2018-08-04T12:36:44.276Z,34.40
2018-08-04T12:39:12.728Z,34.40
2018-08-04T12:41:41.741Z,34.30
2018-08-04T12:44:10.396Z,34.40
2018-08-04T12:46:39.367Z,34.40
2018-08-04T12:49:08.444Z,34.50
2018-08-04T12:51:37.043Z,34.50
2018-08-04T12:54:05.613Z,34.60
2018-08-04T12:56:34.087Z,34.80
2018-08-04T12:59:02.656Z,34.70
2018-08-04T13:01:31.517Z,34.70
2018-08-04T13:04:00.357Z,34.50
2018-08-04T13:06:29.427Z,34.20
2018-08-04T13:08:57.845Z,34.20
2018-08-04T13:11:26.454Z,34.20
2018-08-04T13:13:55.364Z,34.20
2018-08-04T13:16:24.308Z,34.30
2018-08-04T13:18:53.138Z,34.40
2018-08-04T13:21:21.621Z,34.30
2018-08-04T13:23:50.391Z,34.40
2018-08-04T13:26:18.911Z,34.40
2018-08-04T13:28:48.181Z,34.30
2018-08-04T13:31:16.719Z,34.30
2018-08-04T13:33:45.836Z,34.30
2018-08-04T13:36:14.277Z,34.30
2018-08-04T13:38:43.619Z,34.30
2018-08-04T13:41:12.060Z,34.30
2018-08-04T13:43:40.828Z,34.40
2018-08-04T13:46:09.469Z,34.50
2018-08-04T13:48:38.459Z,34.60
2018-08-04T13:51:07.048Z,34.60
2018-08-04T13:53:35.534Z,34.50
2018-08-04T13:56:04.044Z,34.50
2018-08-04T13:58:32.484Z,34.40
2018-08-04T14:01:00.941Z,34.40
2018-08-04T14:03:29.395Z,34.50
2018-08-04T14:05:58.287Z,34.50
2018-08-04T14:08:26.886Z,34.60
2018-08-04T14:10:55.873Z,34.80
2018-08-04T14:13:25.174Z,35.00
2018-08-04T14:15:54.269Z,35.00
2018-08-04T14:18:23.208Z,34.90
2018-08-04T14:20:51.865Z,34.80
2018-08-04T14:23:20.505Z,34.60
2018-08-04T14:25:49.017Z,34.50
2018-08-04T14:28:17.498Z,34.60
2018-08-04T14:30:45.899Z,34.80
2018-08-04T14:33:15.112Z,34.80
2018-08-04T14:35:43.539Z,34.60
2018-08-04T14:38:11.993Z,34.50
2018-08-04T14:40:40.448Z,34.50
2018-08-04T14:43:09.489Z,34.30
2018-08-04T14:45:37.920Z,34.30
2018-08-04T14:48:06.847Z,34.30
2018-08-04T14:50:35.572Z,34.30
2018-08-04T14:53:04.221Z,34.20
2018-08-04T14:55:32.648Z,34.30
2018-08-04T14:58:01.134Z,34.20
2018-08-04T15:00:29.714Z,34.20
2018-08-04T15:02:58.142Z,34.20
2018-08-04T15:05:26.560Z,34.10
2018-08-04T15:07:55.013Z,34.00
2018-08-04T15:10:24.132Z,34.00
2018-08-04T15:12:52.593Z,33.80
2018-08-04T15:15:21.158Z,33.70
2018-08-04T15:17:49.650Z,33.30
2018-08-04T15:20:18.235Z,33.20
2018-08-04T15:22:46.720Z,33.30
2018-08-04T15:25:15.169Z,33.40
2018-08-04T15:27:43.658Z,33.50
2018-08-04T15:30:12.149Z,33.50
2018-08-04T15:32:40.599Z,33.40
2018-08-04T15:35:09.043Z,33.40
2018-08-04T15:37:37.673Z,33.30
2018-08-04T15:40:06.176Z,33.20
2018-08-04T15:42:34.736Z,33.20
2018-08-04T15:45:03.305Z,32.90
2018-08-04T15:47:31.757Z,32.50
2018-08-04T15:50:01.493Z,32.50
2018-08-04T15:52:30.004Z,32.40
2018-08-04T15:54:58.478Z,32.50
2018-08-04T15:57:27.010Z,32.40
2018-08-04T15:59:55.454Z,32.40
2018-08-04T16:02:23.889Z,32.30
2018-08-04T16:04:52.475Z,32.10
2018-08-04T16:07:20.891Z,32.10
2018-08-04T16:09:50.182Z,31.90
2018-08-04T16:12:19.454Z,32.00
2018-08-04T16:14:47.918Z,32.00
2018-08-04T16:17:16.399Z,32.00
2018-08-04T16:19:44.829Z,32.00
2018-08-04T16:22:13.532Z,31.90
2018-08-04T16:24:42.229Z,31.80
2018-08-04T16:27:10.813Z,31.80
2018-08-04T16:29:39.317Z,31.70
2018-08-04T16:32:07.795Z,31.70
2018-08-04T16:34:36.248Z,31.70
2018-08-04T16:37:04.920Z,31.70
2018-08-04T16:39:33.384Z,31.70
2018-08-04T16:42:01.933Z,31.60
2018-08-04T16:44:30.545Z,31.60
2018-08-04T16:46:59.004Z,31.60
2018-08-04T16:49:27.666Z,31.60
2018-08-04T16:51:56.078Z,31.50
2018-08-04T16:54:24.528Z,31.50
2018-08-04T16:56:52.985Z,31.40
2018-08-04T16:59:21.472Z,31.30
2018-08-04T17:01:49.902Z,31.30
2018-08-04T17:04:18.341Z,31.30
2018-08-04T17:06:46.947Z,31.30
2018-08-04T17:09:15.563Z,31.20
2018-08-04T17:11:44.047Z,31.20
2018-08-04T17:14:12.604Z,31.10
2018-08-04T17:16:41.100Z,31.00
2018-08-04T17:19:09.893Z,30.90
2018-08-04T17:21:38.357Z,30.90
2018-08-04T17:24:06.817Z,30.80
2018-08-04T17:26:35.337Z,30.70
2018-08-04T17:29:03.928Z,30.70
2018-08-04T17:31:32.377Z,30.70
2018-08-04T17:34:00.892Z,30.70
2018-08-04T17:36:29.407Z,30.60
2018-08-04T17:38:58.470Z,30.60
2018-08-04T17:41:26.981Z,30.50
2018-08-04T17:43:55.399Z,30.50
2018-08-04T17:46:23.918Z,30.50
2018-08-04T17:48:52.480Z,30.50
2018-08-04T17:51:21.292Z,30.60
2018-08-04T17:53:49.787Z,30.40
2018-08-04T17:56:18.260Z,30.40
2018-08-04T17:58:46.966Z,30.40
2018-08-04T18:11:00.473Z,30.30
2018-08-04T18:13:28.955Z,29.60
2018-08-04T18:15:57.449Z,29.50
2018-08-04T18:18:25.916Z,29.60
2018-08-04T18:20:54.376Z,29.60
2018-08-04T18:23:22.826Z,29.70
2018-08-04T18:25:51.304Z,29.60
2018-08-04T18:28:20.401Z,29.70
2018-08-04T18:30:48.900Z,29.60
2018-08-04T18:33:17.360Z,29.60
2018-08-04T18:35:46.582Z,29.70
2018-08-04T18:38:15.925Z,29.60
2018-08-04T18:40:44.383Z,29.40
2018-08-04T18:43:13.078Z,29.40
2018-08-04T18:45:41.561Z,29.40
2018-08-04T18:48:10.074Z,29.30
2018-08-04T18:50:38.525Z,29.20
2018-08-04T18:53:07.156Z,29.10
2018-08-04T18:55:35.503Z,29.00
2018-08-04T18:58:04.173Z,28.90
2018-08-04T19:00:33.017Z,28.80
2018-08-04T19:03:01.529Z,28.80
2018-08-04T19:05:30.551Z,28.80
2018-08-04T19:07:59.100Z,28.70
2018-08-04T19:10:27.609Z,28.70
2018-08-04T19:12:56.134Z,28.80
2018-08-04T19:15:29.693Z,28.60
2018-08-04T19:17:58.179Z,28.60
2018-08-04T19:20:26.634Z,28.50
2018-08-04T19:22:55.094Z,28.50
2018-08-04T19:25:24.261Z,28.50
2018-08-04T19:27:52.777Z,28.50
2018-08-04T19:30:21.876Z,28.40
2018-08-04T19:32:50.343Z,28.40
2018-08-04T19:35:18.837Z,28.40
2018-08-04T19:37:47.307Z,28.40
2018-08-04T19:40:15.785Z,28.50
2018-08-04T19:42:44.702Z,28.60
2018-08-04T19:45:14.372Z,28.50
2018-08-04T19:47:42.905Z,28.40
2018-08-04T19:50:11.478Z,28.30
2018-08-04T19:52:40.012Z,28.20
2018-08-04T19:55:08.829Z,28.10
2018-08-04T19:57:38.039Z,28.10
2018-08-04T20:00:06.780Z,28.00
2018-08-04T20:02:35.314Z,28.00
2018-08-04T20:05:03.804Z,28.00
2018-08-04T20:07:32.295Z,28.00
2018-08-04T20:10:00.821Z,28.00
2018-08-04T20:12:29.405Z,27.90
2018-08-04T20:14:57.907Z,27.80
2018-08-04T20:17:26.409Z,27.80
2018-08-04T20:19:54.926Z,27.70
2018-08-04T20:22:23.385Z,27.60
2018-08-04T20:24:51.873Z,27.50
2018-08-04T20:27:20.310Z,27.50
2018-08-04T20:29:48.837Z,27.50
2018-08-04T20:32:17.344Z,27.40
2018-08-04T20:34:45.903Z,27.30
2018-08-04T20:37:14.620Z,27.20
2018-08-04T20:39:43.122Z,27.30
2018-08-04T20:42:11.583Z,27.30
2018-08-04T20:44:40.386Z,27.30
2018-08-04T20:47:08.905Z,27.20
2018-08-04T20:49:37.467Z,27.10
2018-08-04T20:52:05.961Z,27.00
2018-08-04T20:54:35.042Z,27.00
2018-08-04T20:57:03.517Z,27.00
2018-08-04T20:59:31.982Z,26.90
2018-08-04T21:02:02.273Z,26.90
2018-08-04T21:04:32.844Z,26.90
2018-08-04T21:07:01.902Z,26.90
2018-08-04T21:09:30.521Z,26.90
2018-08-04T21:11:59.748Z,26.80
2018-08-04T21:14:28.895Z,26.80
2018-08-04T21:16:58.395Z,26.70
2018-08-04T21:19:27.588Z,26.70
2018-08-04T21:21:56.135Z,26.50
2018-08-04T21:24:25.782Z,26.60
2018-08-04T21:26:55.001Z,26.60
2018-08-04T21:29:23.869Z,26.50
2018-08-04T21:31:52.353Z,26.40
2018-08-04T21:34:20.857Z,26.30
2018-08-04T21:36:49.389Z,26.30
2018-08-04T21:39:19.116Z,26.20
2018-08-04T21:41:48.143Z,26.20
2018-08-04T21:44:16.614Z,26.20
2018-08-04T21:46:50.255Z,26.10
2018-08-04T21:49:19.124Z,26.10
2018-08-04T21:51:48.666Z,26.00
2018-08-04T21:54:19.915Z,25.90
2018-08-04T21:56:46.994Z,25.80
2018-08-04T21:59:16.085Z,25.70
2018-08-04T22:01:50.178Z,25.70
2018-08-04T22:04:18.546Z,25.60
2018-08-04T22:07:02.223Z,25.60
2018-08-04T22:09:30.698Z,25.60
2018-08-04T22:11:59.194Z,25.40
2018-08-04T22:14:27.617Z,25.30
2018-08-04T22:16:56.033Z,25.40
2018-08-04T22:19:24.521Z,25.40
2018-08-04T22:21:52.961Z,25.30
2018-08-04T22:24:21.512Z,25.10
2018-08-04T22:26:50.026Z,25.00
2018-08-04T22:29:18.468Z,25.00
2018-08-04T22:31:46.957Z,25.00
2018-08-04T22:34:15.405Z,25.00
2018-08-04T22:36:44.529Z,25.00
2018-08-04T22:41:41.108Z,24.60
2018-08-04T22:44:09.610Z,24.60
2018-08-04T22:46:38.065Z,24.50
2018-08-04T22:49:06.620Z,24.50
2018-08-04T22:51:35.076Z,24.50
2018-08-04T22:54:03.633Z,24.40
2018-08-04T22:56:32.128Z,24.30
2018-08-04T22:59:00.588Z,24.30
2018-08-04T23:01:29.059Z,24.30
2018-08-04T23:03:57.516Z,24.30
2018-08-04T23:06:26.025Z,24.20
2018-08-04T23:08:54.477Z,24.20
2018-08-04T23:11:22.969Z,24.20
2018-08-04T23:13:51.545Z,24.20
2018-08-04T23:16:20.033Z,24.20
2018-08-04T23:18:48.819Z,24.10
2018-08-04T23:21:17.792Z,24.00
2018-08-04T23:23:46.235Z,24.00
2018-08-04T23:26:14.728Z,24.00
2018-08-04T23:28:43.192Z,23.90
2018-08-04T23:31:11.734Z,23.90
2018-08-04T23:33:40.221Z,23.80
2018-08-04T23:36:09.573Z,23.80
2018-08-04T23:38:38.001Z,23.90
2018-08-04T23:41:06.477Z,23.90
2018-08-04T23:43:34.872Z,23.80
2018-08-04T23:46:03.289Z,23.70
2018-08-04T23:48:31.780Z,23.50
2018-08-04T23:51:00.261Z,23.50
2018-08-04T23:53:28.791Z,23.50
2018-08-04T23:55:57.308Z,23.50
2018-08-04T23:58:25.779Z,23.40
